createdAt,value
2022-10-17T00:01:09.303Z,16.52
2022-10-17T00:06:15.062Z,16.73
2022-10-17T00:11:22.477Z,15.65
2022-10-17T00:16:37.401Z,14.32
2022-10-17T00:21:34.894Z,14.82
2022-10-17T00:26:32.448Z,14.48
2022-10-17T00:31:29.752Z,15.50
2022-10-17T00:36:27.327Z,15.38
2022-10-17T00:41:29.126Z,14.23
2022-10-17T00:46:39.022Z,14.55
2022-10-17T00:51:45.490Z,13.37
2022-10-17T00:56:43.967Z,14.27
2022-10-17T01:01:43.594Z,11.98
2022-10-17T01:06:40.936Z,14.02
2022-10-17T01:11:44.181Z,13.82
2022-10-17T01:16:52.508Z,12.20
2022-10-17T01:22:16.775Z,12.55
2022-10-17T01:27:48.240Z,13.02
2022-10-17T01:38:12.157Z,13.07
2022-10-17T01:43:22.052Z,14.68
2022-10-17T01:48:25.772Z,14.43
2022-10-17T01:53:33.397Z,12.70
2022-10-17T01:58:38.284Z,13.13
2022-10-17T02:03:36.566Z,12.57
2022-10-17T02:08:48.457Z,12.75
2022-10-17T02:14:29.450Z,11.80
2022-10-17T02:19:58.103Z,12.25
2022-10-17T02:25:00.762Z,12.25
2022-10-17T02:30:42.561Z,11.18
2022-10-17T02:35:52.553Z,12.65
2022-10-17T02:41:00.832Z,12.68
2022-10-17T02:45:59.104Z,12.93
2022-10-17T02:51:25.466Z,12.50
2022-10-17T02:56:40.412Z,12.35
2022-10-17T03:01:37.857Z,13.13
2022-10-17T03:06:35.212Z,11.50
2022-10-17T03:11:32.508Z,12.68
2022-10-17T03:16:29.773Z,13.05
2022-10-17T03:21:27.079Z,14.38
2022-10-17T03:26:24.983Z,12.90
2022-10-17T03:31:23.180Z,15.10
2022-10-17T03:36:22.651Z,13.93
2022-10-17T03:41:21.385Z,14.85
2022-10-17T03:51:23.110Z,13.73
2022-10-17T03:56:24.805Z,13.98
2022-10-17T04:01:25.562Z,13.02
2022-10-17T04:06:24.744Z,13.20
2022-10-17T04:11:23.458Z,15.07
2022-10-17T04:16:28.316Z,13.43
2022-10-17T04:21:27.678Z,14.43
2022-10-17T04:26:27.487Z,15.15
2022-10-17T04:31:25.927Z,14.00
2022-10-17T04:36:23.912Z,15.68
2022-10-17T04:41:21.852Z,16.00
2022-10-17T04:46:19.214Z,15.38
2022-10-17T04:51:21.815Z,14.18
2022-10-17T04:56:28.486Z,15.88
2022-10-17T05:01:26.986Z,15.75
2022-10-17T05:06:28.067Z,16.35
2022-10-17T05:11:27.863Z,14.80
2022-10-17T05:16:26.620Z,15.63
2022-10-17T05:21:25.616Z,16.98
2022-10-17T05:26:23.602Z,16.52
2022-10-17T05:31:20.916Z,17.48
2022-10-17T05:36:18.138Z,18.63
2022-10-17T05:41:15.363Z,15.35
2022-10-17T05:46:12.584Z,18.80
2022-10-17T05:51:11.036Z,18.17
2022-10-17T05:56:10.475Z,17.58
2022-10-17T06:01:10.661Z,13.67
2022-10-17T06:06:12.278Z,14.05
2022-10-17T06:11:10.584Z,15.60
2022-10-17T06:16:08.476Z,14.73
2022-10-17T06:21:08.807Z,14.65
2022-10-17T06:26:07.798Z,14.65
2022-10-17T06:31:10.607Z,13.00
2022-10-17T06:36:10.522Z,14.13
2022-10-17T06:41:10.457Z,14.65
2022-10-17T06:46:07.693Z,13.38
2022-10-17T06:51:06.353Z,14.15
2022-10-17T06:56:04.848Z,12.77
2022-10-17T07:01:05.092Z,13.65
2022-10-17T07:06:02.847Z,13.15
2022-10-17T07:11:08.512Z,13.43
2022-10-17T07:16:05.863Z,12.70
2022-10-17T07:21:04.233Z,11.23
2022-10-17T07:26:02.955Z,12.57
2022-10-17T07:31:12.771Z,13.45
2022-10-17T07:36:10.158Z,13.97
2022-10-17T07:41:09.224Z,13.85
2022-10-17T07:46:06.687Z,11.73
2022-10-17T07:51:05.599Z,12.40
2022-10-17T07:56:08.289Z,11.82
2022-10-17T08:01:10.760Z,11.95
2022-10-17T08:06:11.185Z,12.65
2022-10-17T08:11:14.481Z,10.25
2022-10-17T08:16:13.413Z,12.15
2022-10-17T08:21:11.548Z,11.20
2022-10-17T08:26:11.049Z,11.90
2022-10-17T08:31:11.332Z,12.63
2022-10-17T08:36:10.037Z,12.65
2022-10-17T08:41:32.595Z,13.68
2022-10-17T08:46:38.396Z,12.38
2022-10-17T08:51:44.393Z,11.25
2022-10-17T08:56:49.299Z,11.38
2022-10-17T09:01:50.092Z,12.00
2022-10-17T09:07:07.551Z,11.48
2022-10-17T09:12:29.135Z,12.55
2022-10-17T09:17:44.973Z,10.45
2022-10-17T09:28:10.203Z,8.95
2022-10-17T09:33:28.802Z,9.60
2022-10-17T09:38:45.810Z,9.77
2022-10-17T09:43:43.175Z,10.25
2022-10-17T09:48:52.486Z,9.32
2022-10-17T09:54:03.237Z,10.38
2022-10-17T09:59:00.551Z,9.93
2022-10-17T10:04:15.503Z,9.90
2022-10-17T10:09:24.149Z,9.32
2022-10-17T10:14:30.503Z,10.60
2022-10-17T10:19:36.106Z,10.35
2022-10-17T10:24:33.497Z,10.88
2022-10-17T10:29:36.937Z,9.98
2022-10-17T10:34:36.264Z,11.35
2022-10-17T10:39:40.268Z,11.15
2022-10-17T10:44:40.883Z,11.52
2022-10-17T10:49:39.702Z,12.15
2022-10-17T10:54:55.483Z,13.43
2022-10-17T11:00:09.813Z,12.52
2022-10-17T11:05:34.386Z,11.90
2022-10-17T11:10:41.572Z,12.82
2022-10-17T11:15:46.367Z,13.05
2022-10-17T11:21:15.366Z,13.23
2022-10-17T11:26:26.856Z,13.25
2022-10-17T11:31:31.652Z,12.52
2022-10-17T11:36:34.387Z,13.43
2022-10-17T11:42:03.518Z,11.95
2022-10-17T11:47:05.029Z,12.77
2022-10-17T11:52:55.352Z,13.35
2022-10-17T11:58:30.410Z,12.40
2022-10-17T12:03:51.527Z,12.65
2022-10-17T12:08:52.465Z,13.65
2022-10-17T12:13:53.287Z,12.05
2022-10-17T12:19:10.396Z,12.63
2022-10-17T12:24:33.141Z,12.80
2022-10-17T12:29:30.747Z,14.32
2022-10-17T12:34:28.105Z,12.43
2022-10-17T12:39:25.421Z,13.07
2022-10-17T12:44:22.643Z,13.13
2022-10-17T12:49:38.285Z,13.75
2022-10-17T12:55:00.260Z,13.38
2022-10-17T13:00:14.894Z,13.73
2022-10-17T13:05:24.898Z,14.10
2022-10-17T13:15:28.861Z,12.75
2022-10-17T13:20:31.333Z,12.15
2022-10-17T13:25:29.439Z,12.32
2022-10-17T13:30:32.947Z,13.23
2022-10-17T13:41:05.824Z,13.13
2022-10-17T13:46:36.170Z,12.40
2022-10-17T13:51:34.195Z,13.35
2022-10-17T13:56:32.129Z,13.52
2022-10-17T14:01:30.494Z,13.57
2022-10-17T14:06:30.118Z,13.50
2022-10-17T14:11:27.425Z,13.65
2022-10-17T14:16:26.575Z,13.80
2022-10-17T14:21:43.323Z,13.50
2022-10-17T14:26:55.608Z,13.90
2022-10-17T14:32:05.336Z,24.10
2022-10-17T14:37:08.676Z,17.83
2022-10-17T14:42:06.125Z,14.07
2022-10-17T14:47:30.768Z,14.73
2022-10-17T14:52:28.992Z,13.00
2022-10-17T14:57:28.239Z,12.68
2022-10-17T15:02:28.037Z,11.75
2022-10-17T15:07:25.920Z,12.57
2022-10-17T15:12:25.620Z,12.60
2022-10-17T15:17:29.935Z,12.13
2022-10-17T15:22:27.606Z,12.82
2022-10-17T15:27:26.648Z,12.52
2022-10-17T15:32:24.258Z,12.88
2022-10-17T15:37:24.514Z,12.05
2022-10-17T15:42:23.343Z,11.93
2022-10-17T15:47:28.304Z,13.23
2022-10-17T15:52:26.509Z,12.80
2022-10-17T15:57:27.777Z,14.13
2022-10-17T16:02:25.315Z,14.20
2022-10-17T16:07:22.645Z,17.02
2022-10-17T16:12:27.882Z,15.07
2022-10-17T16:17:25.076Z,15.02
2022-10-17T16:22:32.711Z,15.60
2022-10-17T16:27:31.300Z,15.18
2022-10-17T16:32:29.029Z,14.93
2022-10-17T16:37:27.097Z,16.25
2022-10-17T16:42:24.994Z,16.90
2022-10-17T16:47:22.837Z,19.75
2022-10-17T16:52:20.275Z,18.35
2022-10-17T16:57:17.735Z,17.92
2022-10-17T17:02:17.569Z,16.88
2022-10-17T17:07:19.657Z,18.75
2022-10-17T17:12:17.123Z,22.42
2022-10-17T17:17:24.435Z,18.60
2022-10-17T17:22:31.582Z,16.70
2022-10-17T17:27:29.711Z,17.70
2022-10-17T17:32:27.115Z,17.83
2022-10-17T17:37:24.316Z,18.60
2022-10-17T17:42:21.684Z,20.65
2022-10-17T17:47:18.899Z,20.90
2022-10-17T17:52:16.101Z,22.92
2022-10-17T17:57:13.431Z,25.27
2022-10-17T18:02:11.670Z,25.63
2022-10-17T18:07:08.924Z,23.27
2022-10-17T18:12:06.193Z,20.52
2022-10-17T18:17:03.551Z,20.70
2022-10-17T18:22:00.823Z,20.85
2022-10-17T18:27:00.075Z,19.98
2022-10-17T18:31:57.404Z,18.48
2022-10-17T18:36:55.459Z,19.23
2022-10-17T18:41:52.999Z,18.90
2022-10-17T18:46:50.501Z,19.42
2022-10-17T18:51:47.828Z,19.30
2022-10-17T18:56:45.533Z,18.85
2022-10-17T19:01:43.784Z,18.70
2022-10-17T19:06:41.827Z,19.40
2022-10-17T19:11:40.400Z,19.05
2022-10-17T19:16:42.178Z,17.95
2022-10-17T19:21:40.196Z,19.40
2022-10-17T19:26:41.514Z,18.23
2022-10-17T19:31:42.432Z,20.83
2022-10-17T19:36:41.496Z,22.75
2022-10-17T19:41:43.664Z,20.58
2022-10-17T19:46:44.809Z,20.08
2022-10-17T19:51:42.217Z,20.73
2022-10-17T19:56:40.561Z,22.00
2022-10-17T20:01:41.930Z,20.75
2022-10-17T20:06:40.219Z,21.30
2022-10-17T20:11:37.569Z,18.65
2022-10-17T20:16:36.244Z,19.38
2022-10-17T20:21:37.348Z,20.05
2022-10-17T20:26:39.613Z,18.83
2022-10-17T20:31:37.489Z,20.13
2022-10-17T20:36:37.567Z,19.45
2022-10-17T20:41:35.327Z,20.38
2022-10-17T20:46:37.294Z,20.17
2022-10-17T20:51:35.918Z,17.35
2022-10-17T20:56:34.911Z,17.67
2022-10-17T21:01:35.642Z,18.05
2022-10-17T21:06:33.016Z,18.42
2022-10-17T21:11:31.045Z,17.90
2022-10-17T21:16:29.902Z,17.98
2022-10-17T21:21:30.201Z,17.65
2022-10-17T21:31:28.637Z,16.92
2022-10-17T21:36:27.397Z,17.98
2022-10-17T21:41:27.195Z,18.10
2022-10-17T21:46:25.546Z,18.08
2022-10-17T21:51:25.216Z,17.73
2022-10-17T21:56:28.130Z,17.63
2022-10-17T22:01:28.577Z,17.33
2022-10-17T22:06:44.785Z,18.33
2022-10-17T22:11:44.327Z,16.55
2022-10-17T22:16:41.957Z,17.30
2022-10-17T22:21:39.524Z,17.27
2022-10-17T22:26:38.165Z,15.95
2022-10-17T22:31:36.398Z,15.90
2022-10-17T22:36:34.295Z,16.30
2022-10-17T22:41:31.622Z,15.63
2022-10-17T22:46:28.964Z,16.02
2022-10-17T22:51:26.825Z,14.90
2022-10-17T22:56:24.165Z,15.85
2022-10-17T23:01:23.809Z,17.73
2022-10-17T23:06:22.362Z,17.15
2022-10-17T23:11:21.092Z,16.05
2022-10-17T23:16:18.532Z,15.55
2022-10-17T23:21:15.964Z,15.18
2022-10-17T23:26:14.690Z,14.10
2022-10-17T23:31:20.491Z,14.32
2022-10-17T23:36:20.169Z,14.30
2022-10-17T23:41:17.686Z,14.32
2022-10-17T23:46:15.086Z,15.02
2022-10-17T23:51:12.367Z,15.75
2022-10-17T23:56:10.665Z,15.38
